createdAt,value
2022-08-03T00:02:20.305Z,17.57
2022-08-03T00:04:47.937Z,17.38
2022-08-03T00:07:17.968Z,17.84
2022-08-03T00:09:55.137Z,18.40
2022-08-03T00:12:25.774Z,18.45
2022-08-03T00:14:56.226Z,18.26
2022-08-03T00:17:29.361Z,17.99
2022-08-03T00:19:59.468Z,17.71
2022-08-03T00:22:30.378Z,17.45
2022-08-03T00:25:03.467Z,17.25
2022-08-03T00:27:34.300Z,17.70
2022-08-03T00:30:07.816Z,18.24
2022-08-03T00:32:53.282Z,18.25
2022-08-03T00:35:36.815Z,18.01
2022-08-03T00:38:13.880Z,17.69
2022-08-03T00:40:44.634Z,17.42
2022-08-03T00:43:15.511Z,17.17
2022-08-03T00:45:47.989Z,16.96
2022-08-03T00:48:32.172Z,17.44
2022-08-03T00:51:04.562Z,17.99
2022-08-03T00:53:35.666Z,17.99
2022-08-03T00:56:08.517Z,17.78
2022-08-03T00:58:44.442Z,17.51
2022-08-03T01:01:12.767Z,17.25
2022-08-03T01:03:48.995Z,17.02
2022-08-03T01:06:21.888Z,16.83
2022-08-03T01:09:39.785Z,17.35
2022-08-03T01:12:34.111Z,18.03
2022-08-03T01:15:34.523Z,17.97
2022-08-03T01:18:43.279Z,17.67
2022-08-03T01:21:29.649Z,17.33
2022-08-03T01:24:05.758Z,17.06
2022-08-03T01:26:46.081Z,16.86
2022-08-03T01:29:41.782Z,17.37
2022-08-03T01:32:58.850Z,17.91
2022-08-03T01:35:14.559Z,17.83
2022-08-03T01:38:01.378Z,17.56
2022-08-03T01:40:29.152Z,17.24
2022-08-03T01:43:03.164Z,16.98
2022-08-03T01:45:33.974Z,16.72
2022-08-03T01:48:04.425Z,16.50
2022-08-03T01:50:37.336Z,16.96
2022-08-03T01:53:04.707Z,17.51
2022-08-03T01:55:33.326Z,17.57
2022-08-03T01:58:06.024Z,17.38
2022-08-03T02:00:43.027Z,17.11
2022-08-03T02:03:18.894Z,16.86
2022-08-03T02:06:01.243Z,16.63
2022-08-03T02:09:02.896Z,16.47
2022-08-03T02:11:58.877Z,17.14
2022-08-03T02:14:38.675Z,17.68
2022-08-03T02:17:15.777Z,17.57
2022-08-03T02:20:25.604Z,17.25
2022-08-03T02:23:06.931Z,16.91
2022-08-03T02:26:02.035Z,16.62
2022-08-03T02:31:15.705Z,16.77
2022-08-03T02:33:55.871Z,17.40
2022-08-03T02:36:31.729Z,17.39
2022-08-03T02:39:04.626Z,17.15
2022-08-03T02:42:18.051Z,16.86
2022-08-03T02:44:50.978Z,16.51
2022-08-03T02:47:21.081Z,16.29
2022-08-03T02:50:14.950Z,16.07
2022-08-03T02:53:07.727Z,16.70
2022-08-03T02:55:47.972Z,17.27
2022-08-03T02:58:37.296Z,17.21
2022-08-03T03:01:16.499Z,16.93
2022-08-03T03:03:44.808Z,16.61
2022-08-03T03:06:12.625Z,16.32
2022-08-03T03:08:43.004Z,16.05
2022-08-03T03:11:10.956Z,15.83
2022-08-03T03:13:38.760Z,16.21
2022-08-03T03:16:06.506Z,16.72
2022-08-03T03:18:34.461Z,16.76
2022-08-03T03:21:03.122Z,16.55
2022-08-03T03:23:31.325Z,16.27
2022-08-03T03:25:59.075Z,15.98
2022-08-03T03:28:26.539Z,15.74
2022-08-03T03:30:56.572Z,15.55
2022-08-03T03:33:23.959Z,15.97
2022-08-03T03:35:51.891Z,16.55
2022-08-03T03:38:19.727Z,16.65
2022-08-03T03:40:47.240Z,16.52
2022-08-03T03:43:14.978Z,16.34
2022-08-03T03:45:45.132Z,16.14
2022-08-03T03:48:12.800Z,15.95
2022-08-03T03:50:41.114Z,15.81
2022-08-03T03:53:12.117Z,16.30
2022-08-03T03:55:59.594Z,16.92
2022-08-03T03:58:28.084Z,17.00
2022-08-03T04:00:58.121Z,16.86
2022-08-03T04:03:25.635Z,16.67
2022-08-03T04:06:12.034Z,16.51
2022-08-03T04:08:58.085Z,16.39
2022-08-03T04:11:31.895Z,17.10
2022-08-03T04:14:17.031Z,17.74
2022-08-03T04:16:50.772Z,17.86
2022-08-03T04:19:38.779Z,17.76
2022-08-03T04:22:15.387Z,17.62
2022-08-03T04:24:54.131Z,17.50
2022-08-03T04:27:22.738Z,17.41
2022-08-03T04:29:54.159Z,18.03
2022-08-03T04:32:28.912Z,18.73
2022-08-03T04:34:58.966Z,18.87
2022-08-03T04:37:51.898Z,18.78
2022-08-03T04:40:41.699Z,18.66
2022-08-03T04:43:10.247Z,18.55
2022-08-03T04:45:40.172Z,18.47
2022-08-03T04:48:07.671Z,18.40
2022-08-03T04:50:35.677Z,18.40
2022-08-03T04:53:06.287Z,19.05
2022-08-03T04:55:36.931Z,19.81
2022-08-03T04:58:04.163Z,20.02
2022-08-03T05:00:31.439Z,20.05
2022-08-03T05:02:59.192Z,20.02
2022-08-03T05:05:48.704Z,19.95
2022-08-03T05:08:27.799Z,19.87
2022-08-03T05:11:01.506Z,19.81
2022-08-03T05:13:28.820Z,19.79
2022-08-03T05:15:55.991Z,19.80
2022-08-03T05:18:25.794Z,20.38
2022-08-03T05:21:02.286Z,21.14
2022-08-03T05:23:29.601Z,21.44
2022-08-03T05:25:59.457Z,21.45
2022-08-03T05:28:29.576Z,21.39
2022-08-03T05:31:00.191Z,21.35
2022-08-03T05:33:30.275Z,21.35
2022-08-03T05:36:03.609Z,21.32
2022-08-03T05:38:36.432Z,21.36
2022-08-03T05:41:21.375Z,21.43
2022-08-03T05:43:58.744Z,21.46
2022-08-03T05:46:28.403Z,21.49
2022-08-03T05:48:57.101Z,22.24
2022-08-03T05:51:27.814Z,23.11
2022-08-03T05:53:55.905Z,23.42
2022-08-03T05:56:26.974Z,23.47
2022-08-03T05:58:54.221Z,23.40
2022-08-03T06:01:24.581Z,23.37
2022-08-03T06:03:52.386Z,23.34
2022-08-03T06:06:19.798Z,23.38
2022-08-03T06:08:48.841Z,23.42
2022-08-03T06:11:18.990Z,23.43
2022-08-03T06:13:46.669Z,23.48
2022-08-03T06:16:14.289Z,23.61
2022-08-03T06:18:41.699Z,23.73
2022-08-03T06:21:15.208Z,23.88
2022-08-03T06:23:53.927Z,24.06
2022-08-03T06:26:25.799Z,24.29
2022-08-03T06:28:54.392Z,24.46
2022-08-03T06:31:24.329Z,24.59
2022-08-03T06:34:33.510Z,24.75
2022-08-03T06:36:43.976Z,24.93
2022-08-03T06:39:31.747Z,25.04
2022-08-03T06:41:59.332Z,25.13
2022-08-03T06:44:28.091Z,25.25
2022-08-03T06:46:55.850Z,25.40
2022-08-03T06:49:23.307Z,25.49
2022-08-03T06:52:04.186Z,25.55
2022-08-03T06:54:38.105Z,25.73
2022-08-03T06:57:06.551Z,25.90
2022-08-03T07:00:08.224Z,26.07
2022-08-03T07:02:31.827Z,26.27
2022-08-03T07:04:59.010Z,26.46
2022-08-03T07:07:29.420Z,26.61
2022-08-03T07:09:58.300Z,26.75
2022-08-03T07:12:28.729Z,26.91
2022-08-03T07:15:00.809Z,27.03
2022-08-03T07:17:30.507Z,27.16
2022-08-03T07:20:03.852Z,27.29
2022-08-03T07:22:31.571Z,27.52
2022-08-03T07:25:01.864Z,27.68
2022-08-03T07:27:30.471Z,27.80
2022-08-03T07:29:59.525Z,27.95
2022-08-03T07:32:26.787Z,28.08
2022-08-03T07:34:59.906Z,28.14
2022-08-03T07:37:30.947Z,28.25
2022-08-03T07:39:58.988Z,28.38
2022-08-03T07:42:29.920Z,28.51
2022-08-03T07:44:57.986Z,28.68
2022-08-03T07:47:34.828Z,28.84
2022-08-03T07:50:04.883Z,29.00
2022-08-03T07:52:51.600Z,29.18
2022-08-03T07:55:23.216Z,29.27
2022-08-03T07:58:06.548Z,29.41
2022-08-03T08:00:37.169Z,29.64
2022-08-03T08:03:04.874Z,29.84
2022-08-03T08:05:32.485Z,29.92
2022-08-03T08:08:00.734Z,30.00
2022-08-03T08:10:28.809Z,30.10
2022-08-03T08:12:56.910Z,30.26
2022-08-03T08:15:26.546Z,30.38
2022-08-03T08:17:55.664Z,30.46
2022-08-03T08:20:30.465Z,30.59
2022-08-03T08:23:03.506Z,30.81
2022-08-03T08:25:37.393Z,31.02
2022-08-03T08:28:30.710Z,31.14
2022-08-03T08:30:52.650Z,31.32
2022-08-03T08:33:23.270Z,31.45
2022-08-03T08:35:55.165Z,31.56
2022-08-03T08:38:24.046Z,31.63
2022-08-03T08:40:51.656Z,31.69
2022-08-03T08:43:18.912Z,31.75
2022-08-03T08:45:50.365Z,31.74
2022-08-03T08:48:25.206Z,31.81
2022-08-03T08:50:56.579Z,31.85
2022-08-03T08:53:29.003Z,31.73
2022-08-03T08:56:01.088Z,31.67
2022-08-03T08:58:37.064Z,31.62
2022-08-03T09:01:04.772Z,31.79
2022-08-03T09:03:35.835Z,31.89
2022-08-03T09:06:03.624Z,31.94
2022-08-03T09:08:40.012Z,32.07
2022-08-03T09:11:07.913Z,32.19
2022-08-03T09:13:36.151Z,32.28
2022-08-03T09:16:22.634Z,32.34
2022-08-03T09:18:51.679Z,32.38
2022-08-03T09:21:34.602Z,32.31
2022-08-03T09:24:05.321Z,32.45
2022-08-03T09:26:35.087Z,32.49
2022-08-03T09:29:10.875Z,32.54
2022-08-03T09:31:43.474Z,32.63
2022-08-03T09:34:17.989Z,32.79
2022-08-03T09:36:49.721Z,32.85
2022-08-03T09:39:18.799Z,33.06
2022-08-03T09:42:04.060Z,33.25
2022-08-03T09:44:42.628Z,33.40
2022-08-03T09:47:10.640Z,33.48
2022-08-03T09:49:38.734Z,33.57
2022-08-03T09:52:37.710Z,33.51
2022-08-03T09:56:31.118Z,33.44
2022-08-03T09:58:09.594Z,33.31
2022-08-03T10:00:52.678Z,32.98
2022-08-03T10:03:23.949Z,32.93
2022-08-03T10:05:59.311Z,32.96
2022-08-03T10:08:36.833Z,33.24
2022-08-03T10:11:06.414Z,33.40
2022-08-03T10:13:34.355Z,33.48
2022-08-03T10:16:22.822Z,33.15
2022-08-03T10:18:57.868Z,32.75
2022-08-03T10:21:36.066Z,32.28
2022-08-03T10:24:17.827Z,32.32
2022-08-03T10:26:49.694Z,32.58
2022-08-03T10:29:27.601Z,32.75
2022-08-03T10:32:02.064Z,32.85
2022-08-03T10:34:35.252Z,32.96
2022-08-03T10:37:02.501Z,33.11
2022-08-03T10:39:30.092Z,33.24
2022-08-03T10:42:02.670Z,33.44
2022-08-03T10:44:33.951Z,33.51
2022-08-03T10:47:12.487Z,33.10
2022-08-03T10:49:49.306Z,32.76
2022-08-03T10:52:32.863Z,32.86
2022-08-03T10:55:21.324Z,33.05
2022-08-03T10:57:58.244Z,33.29
2022-08-03T11:00:27.228Z,33.30
2022-08-03T11:03:16.668Z,33.31
2022-08-03T11:05:48.246Z,33.33
2022-08-03T11:08:39.657Z,33.15
2022-08-03T11:11:19.420Z,32.60
2022-08-03T11:14:08.646Z,32.11
2022-08-03T11:16:43.559Z,32.05
2022-08-03T11:19:14.520Z,32.15
2022-08-03T11:21:53.373Z,32.33
2022-08-03T11:24:47.341Z,32.42
2022-08-03T11:27:17.862Z,32.44
2022-08-03T11:30:29.316Z,32.45
2022-08-03T11:33:02.602Z,32.60
2022-08-03T11:35:35.502Z,32.55
2022-08-03T11:38:05.301Z,32.39
2022-08-03T11:40:39.961Z,31.97
2022-08-03T11:43:22.474Z,31.53
2022-08-03T11:46:03.134Z,31.46
2022-08-03T11:48:40.419Z,31.54
2022-08-03T11:51:08.296Z,31.50
2022-08-03T11:53:42.100Z,31.24
2022-08-03T11:56:13.263Z,31.08
2022-08-03T11:59:01.902Z,31.21
2022-08-03T12:01:43.443Z,31.17
2022-08-03T12:04:11.828Z,31.15
2022-08-03T12:06:55.244Z,31.15
2022-08-03T12:09:26.530Z,30.96
2022-08-03T12:11:59.898Z,30.95
2022-08-03T12:14:51.210Z,30.84
2022-08-03T12:17:19.935Z,30.79
2022-08-03T12:19:49.846Z,30.86
2022-08-03T12:22:31.013Z,31.01
2022-08-03T12:24:58.903Z,31.10
2022-08-03T12:27:31.945Z,31.13
2022-08-03T12:29:59.947Z,30.95
2022-08-03T12:32:33.549Z,30.77
2022-08-03T12:35:11.730Z,30.76
2022-08-03T12:37:41.888Z,30.75
2022-08-03T12:40:13.277Z,30.74
2022-08-03T12:42:45.003Z,30.67
2022-08-03T12:45:28.407Z,30.64
2022-08-03T12:48:01.808Z,30.55
2022-08-03T12:50:33.632Z,30.58
2022-08-03T12:53:05.428Z,30.70
2022-08-03T12:55:57.892Z,30.83
2022-08-03T12:58:39.129Z,30.96
2022-08-03T13:01:13.677Z,30.94
2022-08-03T13:03:43.150Z,30.84
2022-08-03T13:06:13.560Z,30.63
2022-08-03T13:08:41.860Z,30.53
2022-08-03T13:11:55.497Z,30.55
2022-08-03T13:14:20.374Z,30.51
2022-08-03T13:16:57.157Z,30.43
2022-08-03T13:19:26.609Z,30.43
2022-08-03T13:22:03.943Z,30.39
2022-08-03T13:24:32.661Z,30.38
2022-08-03T13:27:00.637Z,30.37
2022-08-03T13:29:50.739Z,30.28
2022-08-03T13:32:21.141Z,30.19
2022-08-03T13:34:48.581Z,30.06
2022-08-03T13:37:16.131Z,30.00
2022-08-03T13:39:57.562Z,29.99
2022-08-03T13:42:32.745Z,30.00
2022-08-03T13:45:00.574Z,30.00
2022-08-03T13:47:28.136Z,29.92
2022-08-03T13:50:01.151Z,29.81
2022-08-03T13:52:33.950Z,29.74
2022-08-03T13:55:02.453Z,29.71
2022-08-03T13:58:18.928Z,29.61
2022-08-03T14:00:26.507Z,29.44
2022-08-03T14:03:05.313Z,29.20
2022-08-03T14:05:38.772Z,29.01
2022-08-03T14:08:07.120Z,28.95
2022-08-03T14:10:45.947Z,28.87
2022-08-03T14:13:16.584Z,28.75
2022-08-03T14:15:51.175Z,28.65
2022-08-03T14:18:28.924Z,28.54
2022-08-03T14:21:05.765Z,28.39
2022-08-03T14:23:34.875Z,28.25
2022-08-03T14:26:02.049Z,28.14
2022-08-03T14:28:29.781Z,28.04
2022-08-03T14:30:57.287Z,27.98
2022-08-03T14:33:25.075Z,28.02
2022-08-03T14:35:52.352Z,28.10
2022-08-03T14:38:19.756Z,28.18
2022-08-03T14:40:47.583Z,28.16
2022-08-03T14:43:18.629Z,28.10
2022-08-03T14:45:46.215Z,28.06
2022-08-03T14:50:32.161Z,28.14
2022-08-03T14:51:18.073Z,28.31
2022-08-03T14:53:46.658Z,28.37
2022-08-03T14:56:16.791Z,28.39
2022-08-03T14:58:51.551Z,28.44
2022-08-03T15:02:06.018Z,28.44
2022-08-03T15:04:10.489Z,28.39
2022-08-03T15:06:41.202Z,28.27
2022-08-03T15:09:23.594Z,28.09
2022-08-03T15:11:51.486Z,27.90
2022-08-03T15:14:22.224Z,27.76
2022-08-03T15:17:00.862Z,27.61
2022-08-03T15:20:02.292Z,27.47
2022-08-03T15:22:20.528Z,27.38
2022-08-03T15:24:56.351Z,27.34
2022-08-03T15:27:23.930Z,27.27
2022-08-03T15:30:08.786Z,27.24
2022-08-03T15:32:37.682Z,27.25
2022-08-03T15:35:05.411Z,27.27
2022-08-03T15:37:32.997Z,27.28
2022-08-03T15:40:01.234Z,27.28
2022-08-03T15:42:29.728Z,27.30
2022-08-03T15:44:58.187Z,27.34
2022-08-03T15:47:25.866Z,27.36
2022-08-03T15:49:53.261Z,27.37
2022-08-03T15:52:20.596Z,27.41
2022-08-03T15:54:47.972Z,27.39
2022-08-03T15:57:15.264Z,27.41
2022-08-03T15:59:44.978Z,27.45
2022-08-03T16:02:13.106Z,27.46
2022-08-03T16:04:40.619Z,27.48
2022-08-03T16:07:07.781Z,27.50
2022-08-03T16:09:44.084Z,27.52
2022-08-03T16:12:16.095Z,27.50
2022-08-03T16:14:52.960Z,27.47
2022-08-03T16:17:24.782Z,27.45
2022-08-03T16:19:55.123Z,27.42
2022-08-03T16:22:26.494Z,27.34
2022-08-03T16:24:54.034Z,27.31
2022-08-03T16:27:56.821Z,27.22
2022-08-03T16:30:10.142Z,27.12
2022-08-03T16:32:39.773Z,27.04
2022-08-03T16:35:07.323Z,27.00
2022-08-03T16:37:38.780Z,26.92
2022-08-03T16:40:17.383Z,26.86
2022-08-03T16:42:47.080Z,26.80
2022-08-03T16:45:18.280Z,26.70
2022-08-03T16:48:01.262Z,26.58
2022-08-03T16:50:35.491Z,26.45
2022-08-03T16:53:09.089Z,26.32
2022-08-03T16:55:48.921Z,26.18
2022-08-03T16:58:34.422Z,26.01
2022-08-03T17:01:20.949Z,25.86
2022-08-03T17:04:02.756Z,25.74
2022-08-03T17:06:36.271Z,25.64
2022-08-03T17:09:12.809Z,25.55
2022-08-03T17:11:43.924Z,25.46
2022-08-03T17:14:22.757Z,25.36
2022-08-03T17:16:55.643Z,25.27
2022-08-03T17:19:29.456Z,25.17
2022-08-03T17:22:07.938Z,25.07
2022-08-03T17:24:48.121Z,24.96
2022-08-03T17:28:48.252Z,24.88
2022-08-03T17:30:54.346Z,24.77
2022-08-03T17:33:25.212Z,24.67
2022-08-03T17:36:08.891Z,24.56
2022-08-03T17:38:40.716Z,24.46
2022-08-03T17:41:15.452Z,24.38
2022-08-03T17:44:15.994Z,24.30
2022-08-03T17:46:38.920Z,24.20
2022-08-03T17:49:25.030Z,24.09
2022-08-03T17:52:03.153Z,23.97
2022-08-03T17:55:56.043Z,23.85
2022-08-03T17:58:02.789Z,23.70
2022-08-03T18:00:52.661Z,23.59
2022-08-03T18:04:10.616Z,23.46
2022-08-03T18:06:55.751Z,23.30
2022-08-03T18:10:05.945Z,23.15
2022-08-03T18:12:23.380Z,23.00
2022-08-03T18:15:01.123Z,22.88
2022-08-03T18:17:58.182Z,22.76
2022-08-03T18:20:34.341Z,22.63
2022-08-03T18:23:09.457Z,22.45
2022-08-03T18:25:53.621Z,22.31
2022-08-03T18:28:35.918Z,22.18
2022-08-03T18:31:08.323Z,22.09
2022-08-03T18:34:18.954Z,21.99
2022-08-03T18:36:34.387Z,21.91
2022-08-03T18:39:04.801Z,21.82
2022-08-03T18:41:36.690Z,21.75
2022-08-03T18:44:53.044Z,21.67
2022-08-03T18:47:22.455Z,22.34
2022-08-03T18:50:20.708Z,22.94
2022-08-03T18:52:54.907Z,22.90
2022-08-03T18:55:33.554Z,22.68
2022-08-03T18:58:38.660Z,22.41
2022-08-03T19:01:57.980Z,22.13
2022-08-03T19:04:29.805Z,21.87
2022-08-03T19:07:08.965Z,21.67
2022-08-03T19:09:52.690Z,21.48
2022-08-03T19:12:35.443Z,21.31
2022-08-03T19:15:10.519Z,21.14
2022-08-03T19:17:53.362Z,21.01
2022-08-03T19:20:21.583Z,21.63
2022-08-03T19:22:53.212Z,22.19
2022-08-03T19:25:20.765Z,22.24
2022-08-03T19:28:04.076Z,22.02
2022-08-03T19:30:39.720Z,21.75
2022-08-03T19:33:08.966Z,21.47
2022-08-03T19:35:55.340Z,21.23
2022-08-03T19:38:28.335Z,21.01
2022-08-03T19:41:19.721Z,20.84
2022-08-03T19:43:53.533Z,20.69
2022-08-03T19:46:22.551Z,21.30
2022-08-03T19:49:10.665Z,21.88
2022-08-03T19:51:58.412Z,21.87
2022-08-03T19:54:53.214Z,21.61
2022-08-03T19:57:34.606Z,21.30
2022-08-03T20:00:03.344Z,21.03
2022-08-03T20:02:40.499Z,20.80
2022-08-03T20:05:14.990Z,20.61
2022-08-03T20:07:48.191Z,20.42
2022-08-03T20:10:20.697Z,20.28
2022-08-03T20:12:55.574Z,20.82
2022-08-03T20:15:31.478Z,21.38
2022-08-03T20:18:06.799Z,21.41
2022-08-03T20:20:44.360Z,21.19
2022-08-03T20:23:18.441Z,20.91
2022-08-03T20:26:03.788Z,20.64
2022-08-03T20:29:09.911Z,20.36
2022-08-03T20:31:44.312Z,20.09
2022-08-03T20:34:12.075Z,19.92
2022-08-03T20:36:57.156Z,20.46
2022-08-03T20:39:37.019Z,20.97
2022-08-03T20:42:07.636Z,20.98
2022-08-03T20:44:39.264Z,20.77
2022-08-03T20:47:23.999Z,20.48
2022-08-03T20:49:57.302Z,20.22
2022-08-03T20:52:33.300Z,19.96
2022-08-03T20:55:02.369Z,19.76
2022-08-03T21:00:46.719Z,20.30
2022-08-03T21:03:22.308Z,20.80
2022-08-03T21:06:01.622Z,20.73
2022-08-03T21:08:33.928Z,20.49
2022-08-03T21:11:04.402Z,20.20
2022-08-03T21:13:14.350Z,19.60
2022-08-03T21:14:18.180Z,19.91
2022-08-03T21:16:47.694Z,19.61
2022-08-03T21:19:21.128Z,19.41
2022-08-03T21:21:54.132Z,19.23
2022-08-03T21:24:24.721Z,19.71
2022-08-03T21:26:55.196Z,20.29
2022-08-03T21:29:25.932Z,20.35
2022-08-03T21:32:33.174Z,20.13
2022-08-03T21:35:12.125Z,19.82
2022-08-03T21:37:40.545Z,19.56
2022-08-03T21:40:09.370Z,19.34
2022-08-03T21:42:40.364Z,19.15
2022-08-03T21:45:17.992Z,19.60
2022-08-03T21:47:48.874Z,20.15
2022-08-03T21:50:28.909Z,20.18
2022-08-03T21:53:05.241Z,19.97
2022-08-03T21:55:38.180Z,19.70
2022-08-03T21:58:10.839Z,19.45
2022-08-03T22:00:41.354Z,19.22
2022-08-03T22:03:19.253Z,19.01
2022-08-03T22:05:52.456Z,19.51
2022-08-03T22:08:34.408Z,20.06
2022-08-03T22:11:12.475Z,20.06
2022-08-03T22:13:58.750Z,19.83
2022-08-03T22:16:46.787Z,19.52
2022-08-03T22:19:30.134Z,19.22
2022-08-03T22:22:08.581Z,18.96
2022-08-03T22:24:59.697Z,18.76
2022-08-03T22:27:35.039Z,19.34
2022-08-03T22:30:16.759Z,19.87
2022-08-03T22:33:03.882Z,19.86
2022-08-03T22:35:47.234Z,19.59
2022-08-03T22:38:48.123Z,19.24
2022-08-03T22:41:18.945Z,18.95
2022-08-03T22:43:46.546Z,18.72
2022-08-03T22:46:24.750Z,18.54
2022-08-03T22:48:59.959Z,19.02
2022-08-03T22:51:38.793Z,19.58
2022-08-03T22:54:15.182Z,19.59
2022-08-03T22:56:43.014Z,19.36
2022-08-03T22:59:41.127Z,19.10
2022-08-03T23:02:21.264Z,18.78
2022-08-03T23:04:53.227Z,18.54
2022-08-03T23:07:31.925Z,18.36
2022-08-03T23:10:05.532Z,18.86
2022-08-03T23:12:51.511Z,19.40
2022-08-03T23:15:26.846Z,19.41
2022-08-03T23:17:58.679Z,19.21
2022-08-03T23:20:31.196Z,18.95
2022-08-03T23:23:04.306Z,18.71
2022-08-03T23:25:39.588Z,18.50
2022-08-03T23:28:15.358Z,18.33
2022-08-03T23:30:45.907Z,18.90
2022-08-03T23:33:17.564Z,19.47
2022-08-03T23:36:20.123Z,19.49
2022-08-03T23:41:41.132Z,18.90
2022-08-03T23:44:16.647Z,18.63
2022-08-03T23:46:46.925Z,18.39
2022-08-03T23:49:23.657Z,18.21
2022-08-03T23:52:12.390Z,18.70
2022-08-03T23:55:12.291Z,19.30
2022-08-03T23:58:11.014Z,19.26
